createdAt,value
2022-07-29T04:16:44.507Z,17.05
2022-07-29T04:19:11.009Z,17.39
2022-07-29T04:21:41.542Z,17.52
2022-07-29T04:24:09.243Z,17.54
2022-07-29T04:26:36.056Z,17.41
2022-07-29T04:33:27.431Z,17.58
2022-07-29T04:35:55.036Z,17.64
2022-07-29T04:38:25.624Z,17.72
2022-07-29T04:40:53.278Z,17.73
2022-07-29T04:43:23.150Z,17.80
2022-07-29T04:45:50.255Z,17.55
2022-07-29T04:48:17.310Z,17.64
2022-07-29T04:50:45.179Z,17.68
2022-07-29T04:53:12.837Z,17.78
2022-07-29T04:55:39.367Z,17.71
2022-07-29T04:58:06.066Z,17.56
2022-07-29T05:00:33.505Z,17.55
2022-07-29T05:03:01.410Z,17.69
2022-07-29T05:05:28.052Z,17.57
2022-07-29T05:07:54.539Z,17.47
2022-07-29T05:10:21.106Z,17.47
2022-07-29T05:12:48.067Z,17.34
2022-07-29T05:15:15.254Z,17.18
2022-07-29T05:17:49.903Z,17.35
2022-07-29T05:20:16.523Z,16.80
2022-07-29T05:22:43.093Z,17.17
2022-07-29T05:25:10.572Z,17.34
2022-07-29T05:27:39.181Z,17.22
2022-07-29T05:30:06.324Z,17.46
2022-07-29T05:32:32.838Z,17.56
2022-07-29T05:34:59.359Z,17.64
2022-07-29T05:37:25.964Z,17.61
2022-07-29T05:39:56.683Z,17.58
2022-07-29T05:42:25.341Z,17.56
2022-07-29T05:44:52.801Z,17.76
2022-07-29T05:47:19.642Z,17.48
2022-07-29T05:49:47.036Z,17.65
2022-07-29T05:52:17.016Z,17.50
2022-07-29T05:54:43.915Z,17.52
2022-07-29T05:57:24.788Z,17.49
2022-07-29T05:59:52.304Z,17.72
2022-07-29T06:02:18.931Z,17.90
2022-07-29T06:04:45.794Z,17.65
2022-07-29T06:07:12.398Z,17.78
2022-07-29T06:09:38.943Z,17.94
2022-07-29T06:12:05.753Z,18.07
2022-07-29T06:14:33.515Z,18.17
2022-07-29T06:17:00.072Z,18.11
2022-07-29T06:19:41.175Z,18.23
2022-07-29T06:22:07.707Z,18.00
2022-07-29T06:24:34.621Z,18.43
2022-07-29T06:27:01.204Z,18.34
2022-07-29T06:29:30.179Z,18.38
2022-07-29T06:31:56.668Z,18.60
2022-07-29T06:34:23.212Z,18.57
2022-07-29T06:36:53.833Z,18.69
2022-07-29T06:39:21.035Z,18.75
2022-07-29T06:41:50.077Z,18.86
2022-07-29T06:44:18.744Z,19.08
2022-07-29T06:46:45.449Z,19.03
2022-07-29T06:49:13.354Z,19.04
2022-07-29T06:51:40.008Z,19.01
2022-07-29T06:54:06.700Z,19.04
2022-07-29T06:56:39.363Z,19.21
2022-07-29T06:59:08.249Z,19.33
2022-07-29T07:01:35.991Z,19.42
2022-07-29T07:04:03.175Z,19.55
2022-07-29T07:06:29.753Z,19.52
2022-07-29T07:08:56.440Z,19.57
2022-07-29T07:11:23.179Z,19.50
2022-07-29T07:14:53.839Z,19.80
2022-07-29T07:17:25.234Z,20.01
2022-07-29T07:19:55.982Z,20.36
2022-07-29T07:22:22.554Z,20.19
2022-07-29T07:24:49.147Z,20.24
2022-07-29T07:27:18.831Z,20.33
2022-07-29T07:29:55.665Z,20.54
2022-07-29T07:32:29.931Z,20.82
2022-07-29T07:35:00.019Z,20.74
2022-07-29T07:38:12.492Z,20.69
2022-07-29T07:40:47.819Z,20.70
2022-07-29T07:43:14.406Z,20.59
2022-07-29T07:45:52.986Z,20.84
2022-07-29T07:48:19.632Z,20.96
2022-07-29T07:50:59.570Z,20.86
2022-07-29T07:53:30.648Z,20.75
2022-07-29T07:56:13.060Z,21.04
2022-07-29T07:59:09.915Z,21.27
2022-07-29T08:01:47.689Z,21.29
2022-07-29T08:04:27.672Z,21.43
2022-07-29T08:06:56.278Z,21.70
2022-07-29T08:09:31.032Z,21.80
2022-07-29T08:12:00.444Z,21.99
2022-07-29T08:14:27.143Z,21.90
2022-07-29T08:16:53.878Z,22.12
2022-07-29T08:19:20.683Z,22.32
2022-07-29T08:21:47.298Z,22.36
2022-07-29T08:24:44.151Z,22.56
2022-07-29T08:27:33.368Z,22.53
2022-07-29T08:29:58.800Z,22.53
2022-07-29T08:32:50.950Z,22.67
2022-07-29T08:35:12.309Z,22.38
2022-07-29T08:37:39.234Z,22.69
2022-07-29T08:40:08.845Z,22.87
2022-07-29T08:42:36.147Z,22.96
2022-07-29T08:45:03.834Z,23.44
2022-07-29T08:47:30.692Z,23.43
2022-07-29T08:49:57.413Z,23.69
2022-07-29T08:52:29.374Z,23.81
2022-07-29T08:54:56.171Z,23.46
2022-07-29T08:57:24.117Z,23.59
2022-07-29T08:59:55.214Z,23.67
2022-07-29T09:02:23.551Z,24.04
2022-07-29T09:04:50.291Z,24.15
2022-07-29T09:07:19.602Z,24.17
2022-07-29T09:09:46.353Z,23.98
2022-07-29T09:12:13.407Z,24.51
2022-07-29T09:14:56.157Z,24.65
2022-07-29T09:17:43.249Z,24.67
2022-07-29T09:20:22.553Z,24.96
2022-07-29T09:22:50.468Z,25.20
2022-07-29T09:25:34.378Z,24.81
2022-07-29T09:28:11.732Z,25.50
2022-07-29T09:30:52.049Z,25.49
2022-07-29T09:37:38.307Z,26.11
2022-07-29T09:40:13.450Z,25.90
2022-07-29T09:42:40.037Z,25.66
2022-07-29T09:45:06.935Z,26.07
2022-07-29T09:47:49.827Z,26.20
2022-07-29T09:50:17.250Z,26.37
2022-07-29T09:52:53.432Z,26.74
2022-07-29T09:55:20.802Z,27.22
2022-07-29T09:57:48.072Z,27.00
2022-07-29T10:00:20.336Z,26.79
2022-07-29T10:02:48.366Z,27.58
2022-07-29T10:05:27.021Z,27.55
2022-07-29T10:08:03.750Z,27.52
2022-07-29T10:10:34.815Z,27.92
2022-07-29T10:13:08.771Z,27.30
2022-07-29T10:15:44.793Z,27.56
2022-07-29T10:18:13.376Z,27.34
2022-07-29T10:20:40.930Z,27.51
2022-07-29T10:23:07.586Z,27.73
2022-07-29T10:25:34.341Z,27.44
2022-07-29T10:28:01.008Z,27.41
2022-07-29T10:30:28.017Z,28.32
2022-07-29T10:33:28.435Z,28.43
2022-07-29T10:36:05.953Z,28.83
2022-07-29T10:38:45.770Z,29.33
2022-07-29T10:41:31.985Z,29.42
2022-07-29T10:44:17.439Z,29.32
2022-07-29T10:46:46.907Z,29.58
2022-07-29T10:49:27.936Z,30.02
2022-07-29T10:52:06.514Z,30.27
2022-07-29T10:54:36.155Z,30.35
2022-07-29T10:57:25.808Z,29.50
2022-07-29T11:00:10.004Z,29.78
2022-07-29T11:02:46.324Z,30.21
2022-07-29T11:05:14.145Z,30.81
2022-07-29T11:08:20.136Z,31.08
2022-07-29T11:10:49.435Z,31.59
2022-07-29T11:13:44.230Z,32.17
2022-07-29T11:16:11.357Z,31.20
2022-07-29T11:19:16.442Z,31.94
2022-07-29T11:21:58.248Z,32.81
2022-07-29T11:24:35.423Z,33.14
2022-07-29T11:27:21.442Z,33.31
2022-07-29T11:29:52.244Z,32.71
2022-07-29T11:32:23.381Z,32.68
2022-07-29T11:35:38.306Z,32.81
2022-07-29T11:38:31.814Z,29.31
2022-07-29T11:41:25.129Z,29.28
2022-07-29T11:44:00.430Z,30.02
2022-07-29T11:46:53.893Z,30.72
2022-07-29T11:49:32.628Z,32.12
2022-07-29T11:52:02.615Z,32.64
2022-07-29T11:54:38.698Z,33.65
2022-07-29T11:57:22.056Z,32.62
2022-07-29T11:59:48.939Z,33.95
2022-07-29T12:05:10.644Z,34.13
2022-07-29T12:07:39.395Z,33.31
2022-07-29T12:10:11.502Z,34.46
2022-07-29T12:12:53.599Z,34.57
2022-07-29T12:15:25.071Z,35.46
2022-07-29T12:18:19.647Z,35.85
2022-07-29T12:20:58.407Z,35.23
2022-07-29T12:23:25.002Z,34.95
2022-07-29T12:25:56.479Z,35.64
2022-07-29T12:28:27.480Z,36.39
2022-07-29T12:30:54.627Z,36.54
2022-07-29T12:33:27.446Z,36.14
2022-07-29T12:36:09.467Z,36.11
2022-07-29T12:38:41.576Z,36.05
2022-07-29T12:41:08.214Z,36.00
2022-07-29T12:43:34.879Z,34.85
2022-07-29T12:46:13.960Z,35.73
2022-07-29T12:48:43.083Z,35.86
2022-07-29T12:51:12.522Z,36.57
2022-07-29T12:53:39.588Z,35.93
2022-07-29T12:56:26.548Z,35.35
2022-07-29T12:58:53.393Z,36.49
2022-07-29T13:01:22.512Z,37.57
2022-07-29T13:03:57.756Z,37.42
2022-07-29T13:06:46.019Z,37.57
2022-07-29T13:09:19.049Z,37.64
2022-07-29T13:11:58.836Z,38.15
2022-07-29T13:14:34.343Z,38.57
2022-07-29T13:17:02.326Z,37.80
2022-07-29T13:19:42.765Z,36.74
2022-07-29T13:22:18.564Z,37.17
2022-07-29T13:24:50.581Z,37.56
2022-07-29T13:27:18.134Z,38.98
2022-07-29T13:29:44.844Z,37.56
2022-07-29T13:32:12.935Z,37.62
2022-07-29T13:34:39.966Z,37.29
2022-07-29T13:37:06.499Z,37.10
2022-07-29T13:39:33.039Z,35.38
2022-07-29T13:42:00.291Z,34.62
2022-07-29T13:44:27.237Z,33.89
2022-07-29T13:46:53.884Z,33.85
2022-07-29T13:49:20.506Z,34.06
2022-07-29T13:51:47.090Z,33.68
2022-07-29T13:54:13.575Z,31.90
2022-07-29T13:56:40.119Z,30.69
2022-07-29T13:59:06.633Z,30.91
2022-07-29T14:01:33.260Z,30.68
2022-07-29T14:04:00.027Z,30.41
2022-07-29T14:06:27.380Z,30.27
2022-07-29T14:08:56.690Z,30.11
2022-07-29T14:11:23.268Z,30.36
2022-07-29T14:13:49.743Z,29.71
2022-07-29T14:16:16.604Z,28.88
2022-07-29T14:18:43.623Z,29.53
2022-07-29T14:21:10.340Z,29.04
2022-07-29T14:23:37.544Z,29.84
2022-07-29T14:26:09.388Z,29.01
2022-07-29T14:28:42.630Z,27.90
2022-07-29T14:31:09.164Z,27.95
2022-07-29T14:33:35.807Z,27.59
2022-07-29T14:36:02.547Z,26.86
2022-07-29T14:38:32.006Z,26.78
2022-07-29T14:40:58.507Z,27.02
2022-07-29T14:43:25.047Z,26.38
2022-07-29T14:45:51.638Z,26.91
2022-07-29T14:48:18.277Z,27.40
2022-07-29T14:50:44.888Z,27.53
2022-07-29T14:53:12.960Z,27.07
2022-07-29T14:55:41.276Z,27.14
2022-07-29T14:58:12.059Z,27.89
2022-07-29T15:00:39.769Z,27.82
2022-07-29T15:03:06.811Z,28.09
2022-07-29T15:05:38.498Z,28.25
2022-07-29T15:08:05.197Z,28.53
2022-07-29T15:10:32.080Z,28.64
2022-07-29T15:12:58.682Z,28.62
2022-07-29T15:15:25.516Z,28.78
2022-07-29T15:17:52.253Z,29.18
2022-07-29T15:20:18.844Z,29.12
2022-07-29T15:22:45.421Z,29.02
2022-07-29T15:25:11.989Z,29.21
2022-07-29T15:27:38.890Z,29.58
2022-07-29T15:30:05.992Z,29.74
2022-07-29T15:32:32.699Z,29.77
2022-07-29T15:34:59.280Z,29.87
2022-07-29T15:37:25.860Z,29.87
2022-07-29T15:39:55.022Z,29.89
2022-07-29T15:42:23.594Z,29.86
2022-07-29T15:44:50.116Z,29.68
2022-07-29T15:47:16.701Z,28.86
2022-07-29T15:49:47.339Z,28.40
2022-07-29T15:52:17.468Z,27.17
2022-07-29T15:54:44.012Z,26.60
2022-07-29T15:57:10.726Z,26.81
2022-07-29T15:59:37.243Z,26.93
2022-07-29T16:02:04.959Z,26.74
2022-07-29T16:04:32.024Z,26.56
2022-07-29T16:06:58.859Z,25.93
2022-07-29T16:09:26.411Z,25.87
2022-07-29T16:11:53.932Z,25.97
2022-07-29T16:14:20.766Z,26.14
2022-07-29T16:16:47.562Z,26.21
2022-07-29T16:19:14.578Z,25.09
2022-07-29T16:21:41.186Z,25.20
2022-07-29T16:24:08.105Z,25.53
2022-07-29T16:26:35.302Z,25.78
2022-07-29T16:29:02.095Z,25.97
2022-07-29T16:31:28.683Z,26.02
2022-07-29T16:33:56.122Z,26.24
2022-07-29T16:36:23.144Z,26.35
2022-07-29T16:38:50.408Z,26.51
2022-07-29T16:41:17.053Z,26.87
2022-07-29T16:43:43.641Z,26.94
2022-07-29T16:46:13.162Z,27.07
2022-07-29T16:48:45.726Z,27.03
2022-07-29T16:51:14.554Z,27.04
2022-07-29T16:53:41.705Z,27.15
2022-07-29T16:56:11.829Z,27.25
2022-07-29T16:58:43.582Z,27.03
2022-07-29T17:01:11.719Z,26.79
2022-07-29T17:04:01.128Z,26.34
2022-07-29T17:06:29.651Z,26.14
2022-07-29T17:08:56.697Z,26.07
2022-07-29T17:11:51.549Z,26.22
2022-07-29T17:14:10.297Z,25.82
2022-07-29T17:16:36.973Z,25.60
2022-07-29T17:19:04.015Z,25.75
2022-07-29T17:21:30.533Z,25.26
2022-07-29T17:23:59.224Z,25.36
2022-07-29T17:26:27.395Z,25.01
2022-07-29T17:28:54.869Z,25.02
2022-07-29T17:31:21.586Z,25.19
2022-07-29T17:33:48.164Z,24.93
2022-07-29T17:36:23.631Z,25.28
2022-07-29T17:38:55.319Z,25.28
2022-07-29T17:41:22.672Z,25.07
2022-07-29T17:43:50.084Z,24.21
2022-07-29T17:46:20.175Z,23.34
2022-07-29T17:48:46.837Z,22.79
2022-07-29T17:51:13.668Z,22.30
2022-07-29T17:53:40.233Z,22.21
2022-07-29T17:56:07.004Z,22.64
2022-07-29T17:58:34.008Z,22.67
2022-07-29T18:01:00.937Z,22.76
2022-07-29T18:03:27.772Z,22.61
2022-07-29T18:05:54.295Z,22.95
2022-07-29T18:08:20.865Z,22.40
2022-07-29T18:10:47.562Z,21.32
2022-07-29T18:13:14.441Z,21.36
2022-07-29T18:15:41.085Z,22.16
2022-07-29T18:18:08.370Z,22.41
2022-07-29T18:20:35.340Z,21.79
2022-07-29T18:23:02.083Z,21.82
2022-07-29T18:25:29.681Z,22.21
2022-07-29T18:28:00.261Z,21.97
2022-07-29T18:30:29.989Z,22.30
2022-07-29T18:33:19.629Z,22.46
2022-07-29T18:35:47.870Z,22.55
2022-07-29T18:40:57.842Z,22.66
2022-07-29T18:43:24.406Z,22.55
2022-07-29T18:45:50.927Z,22.46
2022-07-29T18:48:18.181Z,22.08
2022-07-29T18:50:44.706Z,21.91
2022-07-29T18:53:11.316Z,22.12
2022-07-29T18:55:37.913Z,21.87
2022-07-29T18:58:04.427Z,22.06
2022-07-29T19:00:30.977Z,21.79
2022-07-29T19:02:57.708Z,21.92
2022-07-29T19:05:24.601Z,21.77
2022-07-29T19:07:51.151Z,21.64
2022-07-29T19:10:17.826Z,21.75
2022-07-29T19:12:44.541Z,21.91
2022-07-29T19:15:11.374Z,21.96
2022-07-29T19:17:38.664Z,21.89
2022-07-29T19:20:07.175Z,21.89
2022-07-29T19:22:35.132Z,21.76
2022-07-29T19:25:01.958Z,21.82
2022-07-29T19:27:28.633Z,21.85
2022-07-29T19:29:58.950Z,21.39
2022-07-29T19:32:26.399Z,20.71
2022-07-29T19:35:11.537Z,20.42
2022-07-29T19:37:38.029Z,20.76
2022-07-29T19:40:05.954Z,20.74
2022-07-29T19:42:32.522Z,20.97
2022-07-29T19:44:59.072Z,21.10
2022-07-29T19:47:25.705Z,21.01
2022-07-29T19:49:52.328Z,20.47
2022-07-29T19:52:18.893Z,20.89
2022-07-29T19:54:45.442Z,20.40
2022-07-29T19:57:11.959Z,19.82
2022-07-29T19:59:38.640Z,19.78
2022-07-29T20:02:05.494Z,19.61
2022-07-29T20:04:32.050Z,19.67
2022-07-29T20:07:01.690Z,20.21
2022-07-29T20:09:28.787Z,20.24
2022-07-29T20:11:55.394Z,20.35
2022-07-29T20:14:22.234Z,20.06
2022-07-29T20:16:50.014Z,19.81
2022-07-29T20:19:17.155Z,20.01
2022-07-29T20:21:44.202Z,20.03
2022-07-29T20:24:11.081Z,20.28
2022-07-29T20:26:37.701Z,19.93
2022-07-29T20:29:05.326Z,19.80
2022-07-29T20:31:32.836Z,19.89
2022-07-29T20:34:00.780Z,20.04
2022-07-29T20:36:28.209Z,20.20
2022-07-29T20:38:55.853Z,20.11
2022-07-29T20:41:22.844Z,20.07
2022-07-29T20:43:52.795Z,20.05
2022-07-29T20:46:19.426Z,20.15
2022-07-29T20:48:47.124Z,20.36
2022-07-29T20:51:14.555Z,20.34
2022-07-29T20:53:41.640Z,20.32
2022-07-29T20:56:08.495Z,20.40
2022-07-29T20:58:36.521Z,20.56
2022-07-29T21:01:05.167Z,20.46
2022-07-29T21:03:32.734Z,20.40
2022-07-29T21:06:00.727Z,20.48
2022-07-29T21:08:28.144Z,20.41
2022-07-29T21:10:55.642Z,20.22
2022-07-29T21:13:23.361Z,20.42
2022-07-29T21:15:58.050Z,20.15
2022-07-29T21:18:28.152Z,19.91
2022-07-29T21:20:55.173Z,19.91
2022-07-29T21:23:22.110Z,20.02
2022-07-29T21:25:48.747Z,20.10
2022-07-29T21:28:27.508Z,20.16
2022-07-29T21:30:59.152Z,20.13
2022-07-29T21:33:27.877Z,20.19
2022-07-29T21:38:41.740Z,19.98
2022-07-29T21:41:10.669Z,20.07
2022-07-29T21:43:37.445Z,20.00
2022-07-29T21:46:09.082Z,19.89
2022-07-29T21:48:35.680Z,19.92
2022-07-29T21:51:02.265Z,19.86
2022-07-29T21:53:28.801Z,19.95
2022-07-29T21:55:57.345Z,19.99
2022-07-29T21:58:24.546Z,19.93
